Archival Weather

Václav Havel Intl Apt

Prague, Czechia (LKPR)

Report from: Monday, May 29, 2023 2:30 PM CEST
Current time: Saturday, February 24, 2024 5:03 PM CET

Current weather – Weather history – Daily summaries
Weather forecast

Temperature21.0°C (69.8°F)
Dew point3.0°C (37.4°F)
Winds 5 kts (2.6 m/s, 5.8 mph) Vrb
Winds variableWinds variable
Clouds Sky clear
Altimeter30.12 in.Hg (1020 mB)
Relative humidity31 %
Density altitude589 ft. (180 m)
Remarks Ceiling and visibility OK
No significant changes expected in the next two hours
Flight conditions Visual Meteorological Conditions
Raw dataLKPR 291230Z VRB05KT CAVOK 21/03 Q1020 NOSIG
An error has occurred. This application may no longer respond until reloaded. Reload 🗙